createdAt,value
2022-08-12T00:00:36.569Z,13.38
2022-08-12T00:04:01.065Z,13.32
2022-08-12T00:07:26.408Z,13.24
2022-08-12T00:10:49.662Z,13.19
2022-08-12T00:14:12.733Z,13.19
2022-08-12T00:17:37.127Z,13.32
2022-08-12T00:21:00.999Z,13.46
2022-08-12T00:24:24.981Z,13.54
2022-08-12T00:27:49.111Z,13.55
2022-08-12T00:31:12.788Z,13.53
2022-08-12T00:34:36.380Z,13.55
2022-08-12T00:37:59.517Z,13.57
2022-08-12T00:41:23.460Z,13.60
2022-08-12T00:44:29.409Z,13.67
2022-08-12T00:47:35.257Z,13.67
2022-08-12T00:50:42.092Z,13.64
2022-08-12T00:53:47.599Z,13.64
2022-08-12T00:56:55.377Z,13.64
2022-08-12T01:00:01.935Z,13.64
2022-08-12T01:03:08.383Z,13.63
2022-08-12T01:06:34.822Z,13.63
2022-08-12T01:09:58.329Z,13.61
2022-08-12T01:13:07.255Z,13.61
2022-08-12T01:16:25.239Z,13.63
2022-08-12T01:19:34.913Z,13.62
2022-08-12T01:22:46.613Z,13.56
2022-08-12T01:25:56.209Z,13.49
2022-08-12T01:29:03.446Z,13.47
2022-08-12T01:32:11.849Z,13.38
2022-08-12T01:35:18.712Z,13.27
2022-08-12T01:38:29.733Z,13.19
2022-08-12T01:41:37.624Z,13.17
2022-08-12T01:44:42.951Z,13.19
2022-08-12T01:47:57.061Z,13.22
2022-08-12T01:51:06.539Z,13.19
2022-08-12T01:54:14.531Z,13.22
2022-08-12T01:57:59.237Z,13.20
2022-08-12T02:00:59.186Z,13.14
2022-08-12T02:04:28.978Z,13.08
2022-08-12T02:07:56.627Z,13.02
2022-08-12T02:11:15.732Z,12.97
2022-08-12T02:14:34.911Z,12.91
2022-08-12T02:17:57.024Z,12.83
2022-08-12T02:21:05.402Z,12.74
2022-08-12T02:24:12.682Z,12.67
2022-08-12T02:27:20.421Z,12.57
2022-08-12T02:30:33.216Z,12.46
2022-08-12T02:33:48.346Z,12.40
2022-08-12T02:36:57.595Z,12.35
2022-08-12T02:40:09.034Z,12.30
2022-08-12T02:43:20.865Z,12.26
2022-08-12T02:46:30.416Z,12.20
2022-08-12T02:49:40.627Z,12.17
2022-08-12T02:52:46.184Z,12.14
2022-08-12T02:55:52.119Z,12.13
2022-08-12T02:59:01.360Z,12.15
2022-08-12T03:02:12.424Z,12.17
2022-08-12T03:05:19.279Z,12.17
2022-08-12T03:08:32.370Z,12.20
2022-08-12T03:11:42.726Z,12.28
2022-08-12T03:14:49.210Z,12.40
2022-08-12T03:18:26.119Z,12.58
2022-08-12T03:21:53.009Z,12.73
2022-08-12T03:24:51.084Z,12.84
2022-08-12T03:27:59.459Z,12.97
2022-08-12T03:31:07.597Z,13.10
2022-08-12T03:34:13.598Z,13.21
2022-08-12T03:37:20.670Z,13.33
2022-08-12T03:41:00.003Z,13.46
2022-08-12T03:44:26.021Z,13.58
2022-08-12T03:47:51.699Z,13.67
2022-08-12T03:51:15.837Z,13.74
2022-08-12T03:54:42.711Z,13.83
2022-08-12T03:58:06.225Z,13.93
2022-08-12T04:01:13.230Z,14.05
2022-08-12T04:04:23.696Z,14.16
2022-08-12T04:07:30.159Z,14.28
2022-08-12T04:10:49.540Z,14.42
2022-08-12T04:13:56.005Z,14.46
2022-08-12T04:17:03.096Z,14.45
2022-08-12T04:20:10.063Z,14.42
2022-08-12T04:23:16.632Z,14.38
2022-08-12T04:26:22.511Z,14.34
2022-08-12T04:30:29.705Z,14.30
2022-08-12T04:32:54.250Z,14.24
2022-08-12T04:35:59.773Z,14.21
2022-08-12T04:39:05.787Z,14.19
2022-08-12T04:42:11.247Z,14.33
2022-08-12T04:45:22.390Z,14.44
2022-08-12T04:48:28.255Z,14.53
2022-08-12T04:51:36.389Z,14.58
2022-08-12T04:54:44.012Z,14.64
2022-08-12T04:57:49.463Z,14.71
2022-08-12T05:00:56.627Z,14.76
2022-08-12T05:04:03.011Z,14.93
2022-08-12T05:07:09.965Z,15.09
2022-08-12T05:10:15.374Z,15.25
2022-08-12T05:13:24.255Z,15.44
2022-08-12T05:16:34.320Z,15.67
2022-08-12T05:19:42.297Z,15.82
2022-08-12T05:22:53.099Z,15.90
2022-08-12T05:26:06.154Z,15.99
2022-08-12T05:30:05.548Z,16.16
2022-08-12T05:32:42.212Z,16.62
2022-08-12T05:35:50.264Z,17.20
2022-08-12T05:38:58.636Z,17.83
2022-08-12T05:42:05.294Z,18.19
2022-08-12T05:45:11.861Z,18.47
2022-08-12T05:48:17.555Z,18.72
2022-08-12T05:51:25.505Z,19.13
2022-08-12T05:54:57.558Z,19.41
2022-08-12T05:58:05.014Z,19.67
2022-08-12T06:02:10.885Z,19.82
2022-08-12T06:04:38.322Z,19.99
2022-08-12T06:08:01.347Z,20.58
2022-08-12T06:11:08.072Z,21.17
2022-08-12T06:14:16.811Z,21.52
2022-08-12T06:17:23.311Z,21.86
2022-08-12T06:20:30.248Z,22.39
2022-08-12T06:23:42.669Z,22.74
2022-08-12T06:26:48.627Z,22.92
2022-08-12T06:30:10.032Z,23.13
2022-08-12T06:33:22.382Z,23.29
2022-08-12T06:36:32.610Z,23.24
2022-08-12T06:39:41.669Z,23.40
2022-08-12T06:42:52.279Z,23.52
2022-08-12T06:45:59.237Z,23.56
2022-08-12T06:49:06.605Z,23.69
2022-08-12T06:52:12.260Z,23.86
2022-08-12T06:55:20.293Z,24.05
2022-08-12T06:58:25.715Z,24.23
2022-08-12T07:01:32.211Z,24.37
2022-08-12T07:04:39.275Z,24.49
2022-08-12T07:07:48.071Z,24.65
2022-08-12T07:10:59.271Z,24.74
2022-08-12T07:14:12.410Z,24.93
2022-08-12T07:17:19.023Z,25.19
2022-08-12T07:20:50.195Z,25.36
2022-08-12T07:23:50.625Z,25.56
2022-08-12T07:26:56.091Z,25.73
2022-08-12T07:30:10.918Z,26.17
2022-08-12T07:33:17.014Z,26.65
2022-08-12T07:36:22.708Z,26.82
2022-08-12T07:39:29.867Z,26.98
2022-08-12T07:42:35.614Z,26.96
2022-08-12T07:45:45.528Z,26.89
2022-08-12T07:48:52.458Z,26.81
2022-08-12T07:51:57.925Z,26.72
2022-08-12T07:55:03.700Z,26.55
2022-08-12T07:58:09.198Z,26.23
2022-08-12T08:01:17.684Z,26.14
2022-08-12T08:04:41.297Z,26.33
2022-08-12T08:07:50.733Z,26.66
2022-08-12T08:11:14.410Z,27.07
2022-08-12T08:14:21.243Z,27.33
2022-08-12T08:17:27.112Z,27.58
2022-08-12T08:20:34.014Z,27.89
2022-08-12T08:23:59.784Z,28.16
2022-08-12T08:27:11.140Z,28.29
2022-08-12T08:30:18.936Z,28.28
2022-08-12T08:34:09.534Z,28.36
2022-08-12T08:36:52.169Z,28.20
2022-08-12T08:40:17.985Z,28.26
2022-08-12T08:43:23.720Z,28.48
2022-08-12T08:46:33.035Z,28.40
2022-08-12T08:49:39.028Z,28.35
2022-08-12T08:52:45.077Z,28.30
2022-08-12T08:56:04.714Z,28.53
2022-08-12T08:59:11.566Z,28.52
2022-08-12T09:02:17.167Z,28.45
2022-08-12T09:05:25.413Z,28.30
2022-08-12T09:08:31.527Z,28.19
2022-08-12T09:12:10.683Z,28.20
2022-08-12T09:15:19.245Z,28.15
2022-08-12T09:18:33.731Z,27.97
2022-08-12T09:21:54.838Z,27.97
2022-08-12T09:25:01.382Z,27.98
2022-08-12T09:28:18.307Z,28.14
2022-08-12T09:32:03.938Z,28.46
2022-08-12T09:34:50.942Z,28.76
2022-08-12T09:38:02.235Z,28.88
2022-08-12T09:42:10.039Z,28.77
2022-08-12T09:45:17.773Z,28.45
2022-08-12T09:48:23.199Z,28.37
2022-08-12T09:51:37.807Z,28.41
2022-08-12T09:54:50.215Z,28.46
2022-08-12T09:58:07.582Z,28.96
2022-08-12T10:01:25.850Z,29.21
2022-08-12T10:04:51.603Z,29.20
2022-08-12T10:07:57.561Z,29.29
2022-08-12T10:11:22.397Z,29.29
2022-08-12T10:14:33.319Z,29.33
2022-08-12T10:17:56.844Z,29.29
2022-08-12T10:21:10.742Z,29.57
2022-08-12T10:24:21.844Z,30.03
2022-08-12T10:28:04.271Z,30.32
2022-08-12T10:31:15.895Z,30.40
2022-08-12T10:34:26.469Z,30.37
2022-08-12T10:38:38.852Z,30.15
2022-08-12T10:41:18.863Z,29.94
2022-08-12T10:44:24.902Z,29.99
2022-08-12T10:48:20.686Z,30.04
2022-08-12T10:51:03.394Z,29.69
2022-08-12T10:54:22.314Z,29.69
2022-08-12T10:58:13.634Z,29.65
2022-08-12T11:01:50.667Z,29.90
2022-08-12T11:04:39.456Z,29.81
2022-08-12T11:08:36.957Z,29.57
2022-08-12T11:12:07.608Z,29.58
2022-08-12T11:14:50.317Z,29.75
2022-08-12T11:17:57.336Z,30.23
2022-08-12T11:21:08.702Z,30.71
2022-08-12T11:24:32.404Z,30.75
2022-08-12T11:27:39.402Z,30.58
2022-08-12T11:30:45.108Z,30.51
2022-08-12T11:34:04.502Z,30.75
2022-08-12T11:37:25.609Z,31.11
2022-08-12T11:40:32.872Z,31.51
2022-08-12T11:43:50.309Z,31.66
2022-08-12T11:47:09.445Z,31.97
2022-08-12T11:50:25.708Z,32.32
2022-08-12T11:53:59.643Z,32.56
2022-08-12T11:58:07.028Z,32.63
2022-08-12T12:04:05.025Z,33.22
2022-08-12T12:07:11.554Z,33.62
2022-08-12T12:10:22.143Z,33.62
2022-08-12T12:14:08.175Z,33.38
2022-08-12T12:16:53.491Z,33.03
2022-08-12T12:20:01.325Z,32.99
2022-08-12T12:23:28.729Z,33.21
2022-08-12T12:26:36.980Z,33.13
2022-08-12T12:30:18.624Z,32.91
2022-08-12T12:33:10.071Z,32.80
2022-08-12T12:36:29.673Z,33.06
2022-08-12T12:39:55.052Z,33.11
2022-08-12T12:43:05.217Z,33.06
2022-08-12T12:46:11.293Z,33.37
2022-08-12T12:49:17.362Z,33.70
2022-08-12T12:52:27.131Z,34.06
2022-08-12T12:55:36.050Z,34.04
2022-08-12T12:58:43.892Z,33.71
2022-08-12T13:01:50.278Z,33.61
2022-08-12T13:04:56.783Z,33.35
2022-08-12T13:08:05.412Z,32.79
2022-08-12T13:11:11.604Z,32.12
2022-08-12T13:14:28.214Z,31.50
2022-08-12T13:18:02.472Z,31.00
2022-08-12T13:21:04.211Z,30.88
2022-08-12T13:24:10.811Z,30.85
2022-08-12T13:27:16.436Z,30.74
2022-08-12T13:30:26.297Z,30.47
2022-08-12T13:34:33.321Z,30.32
2022-08-12T13:36:59.250Z,30.34
2022-08-12T13:40:09.356Z,30.46
2022-08-12T13:43:41.440Z,30.31
2022-08-12T13:46:58.029Z,30.16
2022-08-12T13:50:05.802Z,30.12
2022-08-12T13:53:24.515Z,30.24
2022-08-12T13:56:41.673Z,30.34
2022-08-12T14:00:00.410Z,30.65
2022-08-12T14:03:18.168Z,30.86
2022-08-12T14:06:25.986Z,30.92
2022-08-12T14:09:56.614Z,30.95
2022-08-12T14:13:02.289Z,30.88
2022-08-12T14:16:15.512Z,30.95
2022-08-12T14:20:01.341Z,31.07
2022-08-12T14:24:01.461Z,31.15
2022-08-12T14:26:33.086Z,31.25
2022-08-12T14:30:05.722Z,31.43
2022-08-12T14:33:29.695Z,31.78
2022-08-12T14:36:49.941Z,32.09
2022-08-12T14:39:56.023Z,32.41
2022-08-12T14:43:06.395Z,32.70
2022-08-12T14:46:13.219Z,33.09
2022-08-12T14:50:00.798Z,33.41
2022-08-12T15:00:08.561Z,34.18
2022-08-12T15:03:52.854Z,34.25
2022-08-12T15:06:55.168Z,34.27
2022-08-12T15:10:01.679Z,34.20
2022-08-12T15:13:10.831Z,33.94
2022-08-12T15:16:18.792Z,33.70
2022-08-12T15:20:22.373Z,33.63
2022-08-12T15:22:58.044Z,33.75
2022-08-12T15:26:06.030Z,33.99
2022-08-12T15:29:11.473Z,34.14
2022-08-12T15:32:16.966Z,34.21
2022-08-12T15:35:52.204Z,34.01
2022-08-12T15:38:59.194Z,33.97
2022-08-12T15:42:04.841Z,33.80
2022-08-12T15:45:11.141Z,33.71
2022-08-12T15:48:32.915Z,33.38
2022-08-12T15:51:57.397Z,33.42
2022-08-12T15:55:11.263Z,33.68
2022-08-12T15:58:18.332Z,33.66
2022-08-12T16:01:35.621Z,33.90
2022-08-12T16:04:41.817Z,34.19
2022-08-12T16:07:53.700Z,34.36
2022-08-12T16:10:59.568Z,34.41
2022-08-12T16:14:05.117Z,34.48
2022-08-12T16:17:14.842Z,34.52
2022-08-12T16:20:22.595Z,34.45
2022-08-12T16:23:52.218Z,34.09
2022-08-12T16:27:01.089Z,33.50
2022-08-12T16:30:09.373Z,33.09
2022-08-12T16:33:19.678Z,32.56
2022-08-12T16:36:26.068Z,31.86
2022-08-12T16:39:35.277Z,31.48
2022-08-12T16:43:02.074Z,31.13
2022-08-12T16:46:31.812Z,30.77
2022-08-12T16:49:43.423Z,30.38
2022-08-12T16:52:52.035Z,30.09
2022-08-12T16:56:04.462Z,29.93
2022-08-12T16:59:15.778Z,29.79
2022-08-12T17:02:33.639Z,29.71
2022-08-12T17:05:40.562Z,29.67
2022-08-12T17:08:51.866Z,29.67
2022-08-12T17:12:01.639Z,29.55
2022-08-12T17:15:50.430Z,29.47
2022-08-12T17:18:43.263Z,29.31
2022-08-12T17:22:01.497Z,29.16
2022-08-12T17:25:14.847Z,28.99
2022-08-12T17:28:22.555Z,28.85
2022-08-12T17:32:00.712Z,28.78
2022-08-12T17:35:14.424Z,28.65
2022-08-12T17:38:21.101Z,28.48
2022-08-12T17:41:56.449Z,28.30
2022-08-12T17:44:53.757Z,28.06
2022-08-12T17:48:05.705Z,27.84
2022-08-12T17:51:15.580Z,27.64
2022-08-12T17:54:22.341Z,27.54
2022-08-12T17:57:29.619Z,27.59
2022-08-12T18:00:39.790Z,27.49
2022-08-12T18:04:05.146Z,27.32
2022-08-12T18:07:14.011Z,27.06
2022-08-12T18:10:34.989Z,26.81
2022-08-12T18:13:42.867Z,26.53
2022-08-12T18:16:48.813Z,26.31
2022-08-12T18:20:05.937Z,26.07
2022-08-12T18:23:13.590Z,25.85
2022-08-12T18:26:26.686Z,25.66
2022-08-12T18:29:41.789Z,25.47
2022-08-12T18:32:58.550Z,25.28
2022-08-12T18:36:13.336Z,25.09
2022-08-12T18:39:20.288Z,24.92
2022-08-12T18:42:28.451Z,24.76
2022-08-12T18:45:46.908Z,24.60
2022-08-12T18:49:17.117Z,24.43
2022-08-12T18:52:31.364Z,24.23
2022-08-12T18:55:38.387Z,24.05
2022-08-12T18:59:04.264Z,23.86
2022-08-12T19:02:19.784Z,23.68
2022-08-12T19:05:52.834Z,23.52
2022-08-12T19:08:53.625Z,23.36
2022-08-12T19:12:20.315Z,23.24
2022-08-12T19:15:26.058Z,23.12
2022-08-12T19:18:33.712Z,23.01
2022-08-12T19:21:42.536Z,22.91
2022-08-12T19:25:19.804Z,22.81
2022-08-12T19:28:35.508Z,22.73
2022-08-12T19:31:57.733Z,22.65
2022-08-12T19:38:30.982Z,22.53
2022-08-12T19:42:00.944Z,22.45
2022-08-12T19:45:12.459Z,22.37
2022-08-12T19:48:19.405Z,22.30
2022-08-12T19:51:33.667Z,22.25
2022-08-12T19:54:45.092Z,22.18
2022-08-12T19:58:04.903Z,22.13
2022-08-12T20:01:12.708Z,22.10
2022-08-12T20:07:34.400Z,22.06
2022-08-12T20:10:51.128Z,22.02
2022-08-12T20:14:01.364Z,21.99
2022-08-12T20:17:08.660Z,21.96
2022-08-12T20:20:19.693Z,21.91
2022-08-12T20:23:37.073Z,21.89
2022-08-12T20:26:57.062Z,21.85
2022-08-12T20:30:03.431Z,21.81
2022-08-12T20:33:18.389Z,21.77
2022-08-12T20:36:40.790Z,21.73
2022-08-12T20:39:56.463Z,21.71
2022-08-12T20:43:04.483Z,21.65
2022-08-12T20:46:15.292Z,21.60
2022-08-12T20:49:20.833Z,21.54
2022-08-12T20:52:30.503Z,21.46
2022-08-12T20:55:43.665Z,21.38
2022-08-12T20:58:53.644Z,21.31
2022-08-12T21:02:01.784Z,21.24
2022-08-12T21:06:09.348Z,21.16
2022-08-12T21:09:00.274Z,21.05
2022-08-12T21:12:31.483Z,20.97
2022-08-12T21:15:55.161Z,20.87
2022-08-12T21:18:58.220Z,20.78
2022-08-12T21:22:06.380Z,20.70
2022-08-12T21:25:44.274Z,20.62
2022-08-12T21:28:58.342Z,20.50
2022-08-12T21:32:37.065Z,20.39
2022-08-12T21:35:35.827Z,20.31
2022-08-12T21:38:45.671Z,20.24
2022-08-12T21:41:53.994Z,20.19
2022-08-12T21:45:43.932Z,20.16
2022-08-12T21:48:26.211Z,20.14
2022-08-12T21:51:49.707Z,20.12
2022-08-12T21:54:56.237Z,20.09
2022-08-12T21:58:10.722Z,20.08
2022-08-12T22:01:22.754Z,20.11
2022-08-12T22:04:51.562Z,20.15
2022-08-12T22:07:59.943Z,20.19
2022-08-12T22:11:06.029Z,20.21
2022-08-12T22:14:21.887Z,20.23
2022-08-12T22:17:50.141Z,20.25
2022-08-12T22:21:00.738Z,20.25
2022-08-12T22:24:09.671Z,20.24
2022-08-12T22:27:51.746Z,20.23
2022-08-12T22:31:15.132Z,20.23
2022-08-12T22:34:21.656Z,20.23
2022-08-12T22:37:35.231Z,20.21
2022-08-12T22:40:48.828Z,20.16
2022-08-12T22:44:13.671Z,20.12
2022-08-12T22:47:54.268Z,20.05
2022-08-12T22:51:01.498Z,20.02
2022-08-12T22:54:06.962Z,20.01
2022-08-12T22:57:53.206Z,20.01
2022-08-12T23:00:58.175Z,20.02
2022-08-12T23:04:12.230Z,20.02
2022-08-12T23:07:24.243Z,19.99
2022-08-12T23:10:30.133Z,19.97
2022-08-12T23:13:54.823Z,19.96
2022-08-12T23:17:01.104Z,19.95
2022-08-12T23:20:07.208Z,19.97
2022-08-12T23:23:17.393Z,19.98
2022-08-12T23:26:45.676Z,19.97
2022-08-12T23:30:17.835Z,19.96
2022-08-12T23:33:59.784Z,19.95
2022-08-12T23:36:42.447Z,19.93
2022-08-12T23:40:14.753Z,19.95
2022-08-12T23:43:16.432Z,19.96
2022-08-12T23:46:25.822Z,19.96
2022-08-12T23:49:57.989Z,19.96
2022-08-12T23:52:57.598Z,19.96
2022-08-12T23:56:03.151Z,19.95
2022-08-12T23:59:10.609Z,19.93
